This is the latest recevied weather packets stored in our database for station/object WD5U-1. If no packets are shown the sender has not sent any weather packets the latest 10 day(s).
| Time | Temp. | Humidity | Pressure | Rain* | Wind** | Luminosity | Snow |
|---|---|---|---|---|---|---|---|
| 1777923522 | 26.11° C | 63% | 1010.2 hPa | 0 mm | - | - | - |
| 1777923380 | 26.11° C | 62% | 1010.3 hPa | 0 mm | - | - | - |
| 1777922421 | 25.56° C | 63% | 1010.3 hPa | 0 mm | - | - | - |
| 1777922299 | 25.56° C | 63% | 1010.4 hPa | 0 mm | - | - | - |
| 1777922085 | 25° C | 64% | 1010.3 hPa | 0 mm | - | - | - |
| 1777921964 | 25.56° C | 63% | 1010.6 hPa | 0 mm | - | - | - |
| 1777921227 | 25° C | 64% | 1010.6 hPa | 0 mm | - | - | - |
| 1777920617 | 25.56° C | 64% | 1010.7 hPa | 0 mm | - | - | - |
| 1777919544 | 24.44° C | 65% | 1011.1 hPa | 0 mm | - | - | - |
| 1777919443 | 24.44° C | 65% | 1011 hPa | 0 mm | - | - | - |
| 1777919301 | 25° C | 63% | 1011.1 hPa | 0 mm | - | - | - |
| 1777919200 | 25° C | 64% | 1011.2 hPa | 0 mm | - | - | - |
| 1777918825 | 25° C | 63% | 1011.2 hPa | 0 mm | - | - | - |
| 1777917499 | 23.89° C | 66% | 1011.7 hPa | 0 mm | - | - | - |
| 1777916185 | 23.89° C | 65% | 1012 hPa | 0 mm | - | - | - |
| 1777915344 | 23.33° C | 67% | 1012.2 hPa | 0 mm | - | - | - |
| 1777915223 | 23.33° C | 68% | 1012.1 hPa | 0 mm | - | - | - |
| 1777915122 | 23.33° C | 67% | 1012.2 hPa | 0 mm | - | - | - |
| 1777914382 | 22.78° C | 68% | 1012.5 hPa | 0 mm | - | - | - |
| 1777914179 | 22.22° C | 68% | 1012.4 hPa | 0 mm | - | - | - |
| 1777914017 | 22.22° C | 67% | 1012.4 hPa | 0 mm | - | - | - |
| 1777913784 | 22.22° C | 68% | 1012.2 hPa | 0 mm | - | - | - |
| 1777913663 | 22.78° C | 68% | 1012.2 hPa | 0 mm | - | - | - |
| 1777913541 | 22.22° C | 68% | 1012.5 hPa | 0 mm | - | - | - |
| 1777913106 | 22.22° C | 68% | 1012.8 hPa | 0 mm | - | - | - |
* Rain latest hour (hover to see other rain measurements)
** Current wind speed in m/s (hover to see current wind gust speed)